sensor_id;sensor_type;location;lat;lon;timestamp;temperature;humidity
21121;DHT22;12519;43.318;21.898;2024-02-21T00:03:23;10.0;100.0
21121;DHT22;12519;43.318;21.898;2024-02-21T00:07:59;9.7;100.0
21121;DHT22;12519;43.318;21.898;2024-02-21T00:12:37;9.7;100.0
21121;DHT22;12519;43.318;21.898;2024-02-21T00:17:14;9.6;100.0
21121;DHT22;12519;43.318;21.898;2024-02-21T00:21:50;9.6;100.0
21121;DHT22;12519;43.318;21.898;2024-02-21T00:26:26;9.6;100.0
21121;DHT22;12519;43.318;21.898;2024-02-21T00:31:03;9.5;100.0
21121;DHT22;12519;43.318;21.898;2024-02-21T00:35:39;9.5;100.0
21121;DHT22;12519;43.318;21.898;2024-02-21T00:40:16;9.4;100.0
21121;DHT22;12519;43.318;21.898;2024-02-21T00:44:52;9.4;100.0
21121;DHT22;12519;43.318;21.898;2024-02-21T00:49:29;9.4;100.0
21121;DHT22;12519;43.318;21.898;2024-02-21T00:54:05;9.4;100.0
21121;DHT22;12519;43.318;21.898;2024-02-21T00:58:41;9.6;100.0
21121;DHT22;12519;43.318;21.898;2024-02-21T01:03:17;9.6;100.0
21121;DHT22;12519;43.318;21.898;2024-02-21T01:07:54;9.7;100.0
21121;DHT22;12519;43.318;21.898;2024-02-21T01:12:30;9.7;100.0
21121;DHT22;12519;43.318;21.898;2024-02-21T01:17:07;9.7;100.0
21121;DHT22;12519;43.318;21.898;2024-02-21T01:21:43;9.7;100.0
21121;DHT22;12519;43.318;21.898;2024-02-21T01:26:19;9.7;100.0
21121;DHT22;12519;43.318;21.898;2024-02-21T01:30:55;9.7;100.0
21121;DHT22;12519;43.318;21.898;2024-02-21T01:35:32;9.7;100.0
21121;DHT22;12519;43.318;21.898;2024-02-21T01:40:12;9.6;100.0
21121;DHT22;12519;43.318;21.898;2024-02-21T01:44:50;9.6;100.0
21121;DHT22;12519;43.318;21.898;2024-02-21T01:49:26;9.6;100.0
21121;DHT22;12519;43.318;21.898;2024-02-21T01:54:03;9.6;100.0
21121;DHT22;12519;43.318;21.898;2024-02-21T01:58:42;9.6;100.0
21121;DHT22;12519;43.318;21.898;2024-02-21T02:03:24;9.6;100.0
21121;DHT22;12519;43.318;21.898;2024-02-21T02:08:01;9.6;100.0
21121;DHT22;12519;43.318;21.898;2024-02-21T02:12:38;9.6;100.0
21121;DHT22;12519;43.318;21.898;2024-02-21T02:17:15;9.5;100.0
21121;DHT22;12519;43.318;21.898;2024-02-21T02:21:55;9.5;100.0
21121;DHT22;12519;43.318;21.898;2024-02-21T02:27:04;9.4;100.0
21121;DHT22;12519;43.318;21.898;2024-02-21T02:31:40;9.4;100.0
21121;DHT22;12519;43.318;21.898;2024-02-21T02:36:16;9.4;100.0
21121;DHT22;12519;43.318;21.898;2024-02-21T02:40:53;9.4;100.0
21121;DHT22;12519;43.318;21.898;2024-02-21T02:45:29;9.4;100.0
21121;DHT22;12519;43.318;21.898;2024-02-21T02:50:07;9.5;100.0
21121;DHT22;12519;43.318;21.898;2024-02-21T02:54:45;9.5;100.0
21121;DHT22;12519;43.318;21.898;2024-02-21T02:59:21;9.6;100.0
21121;DHT22;12519;43.318;21.898;2024-02-21T03:03:56;9.6;100.0
21121;DHT22;12519;43.318;21.898;2024-02-21T03:08:32;9.6;100.0
21121;DHT22;12519;43.318;21.898;2024-02-21T03:13:08;9.6;100.0
21121;DHT22;12519;43.318;21.898;2024-02-21T03:17:45;9.5;100.0
21121;DHT22;12519;43.318;21.898;2024-02-21T03:22:22;9.5;100.0
21121;DHT22;12519;43.318;21.898;2024-02-21T03:26:58;9.4;100.0
21121;DHT22;12519;43.318;21.898;2024-02-21T03:31:34;9.4;100.0
21121;DHT22;12519;43.318;21.898;2024-02-21T03:36:13;9.4;100.0
21121;DHT22;12519;43.318;21.898;2024-02-21T03:40:50;9.4;100.0
21121;DHT22;12519;43.318;21.898;2024-02-21T03:45:26;9.4;100.0
21121;DHT22;12519;43.318;21.898;2024-02-21T03:50:03;9.5;100.0
21121;DHT22;12519;43.318;21.898;2024-02-21T03:54:44;9.5;100.0
21121;DHT22;12519;43.318;21.898;2024-02-21T03:59:20;9.4;100.0
21121;DHT22;12519;43.318;21.898;2024-02-21T04:03:58;9.4;100.0
21121;DHT22;12519;43.318;21.898;2024-02-21T04:08:34;9.4;100.0
21121;DHT22;12519;43.318;21.898;2024-02-21T04:13:11;9.4;100.0
21121;DHT22;12519;43.318;21.898;2024-02-21T04:17:47;9.4;100.0
21121;DHT22;12519;43.318;21.898;2024-02-21T04:22:23;9.4;100.0
21121;DHT22;12519;43.318;21.898;2024-02-21T04:26:59;9.4;100.0
21121;DHT22;12519;43.318;21.898;2024-02-21T04:31:35;9.3;100.0
21121;DHT22;12519;43.318;21.898;2024-02-21T04:36:11;9.3;100.0
21121;DHT22;12519;43.318;21.898;2024-02-21T04:40:47;9.2;100.0
21121;DHT22;12519;43.318;21.898;2024-02-21T04:45:24;9.2;100.0
21121;DHT22;12519;43.318;21.898;2024-02-21T04:50:00;9.2;100.0
21121;DHT22;12519;43.318;21.898;2024-02-21T04:54:36;9.2;100.0
21121;DHT22;12519;43.318;21.898;2024-02-21T04:59:12;10.3;100.0
21121;DHT22;12519;43.318;21.898;2024-02-21T05:03:49;10.3;100.0
21121;DHT22;12519;43.318;21.898;2024-02-21T05:08:25;11.4;100.0
21121;DHT22;12519;43.318;21.898;2024-02-21T05:13:01;11.4;100.0
21121;DHT22;12519;43.318;21.898;2024-02-21T05:17:38;11.0;100.0
21121;DHT22;12519;43.318;21.898;2024-02-21T05:22:16;11.0;100.0
21121;DHT22;12519;43.318;21.898;2024-02-21T05:26:53;11.0;100.0
21121;DHT22;12519;43.318;21.898;2024-02-21T05:31:54;10.7;100.0
21121;DHT22;12519;43.318;21.898;2024-02-21T05:36:32;10.7;100.0
21121;DHT22;12519;43.318;21.898;2024-02-21T05:41:08;10.0;100.0
21121;DHT22;12519;43.318;21.898;2024-02-21T05:45:44;10.0;100.0
21121;DHT22;12519;43.318;21.898;2024-02-21T05:50:21;9.3;100.0
21121;DHT22;12519;43.318;21.898;2024-02-21T05:54:57;9.3;100.0
21121;DHT22;12519;43.318;21.898;2024-02-21T05:59:33;9.2;100.0
21121;DHT22;12519;43.318;21.898;2024-02-21T06:04:09;9.2;100.0
21121;DHT22;12519;43.318;21.898;2024-02-21T06:08:45;9.0;100.0
21121;DHT22;12519;43.318;21.898;2024-02-21T06:13:22;9.0;100.0
21121;DHT22;12519;43.318;21.898;2024-02-21T06:17:59;9.0;100.0
21121;DHT22;12519;43.318;21.898;2024-02-21T06:22:35;9.0;100.0
21121;DHT22;12519;43.318;21.898;2024-02-21T06:27:11;9.0;100.0
21121;DHT22;12519;43.318;21.898;2024-02-21T06:31:48;9.1;100.0
21121;DHT22;12519;43.318;21.898;2024-02-21T06:36:24;9.1;100.0
21121;DHT22;12519;43.318;21.898;2024-02-21T06:41:01;9.1;100.0
21121;DHT22;12519;43.318;21.898;2024-02-21T06:45:37;9.1;100.0
21121;DHT22;12519;43.318;21.898;2024-02-21T06:50:15;9.2;100.0
21121;DHT22;12519;43.318;21.898;2024-02-21T06:54:51;9.2;100.0
21121;DHT22;12519;43.318;21.898;2024-02-21T06:59:28;9.8;100.0
21121;DHT22;12519;43.318;21.898;2024-02-21T07:04:04;9.8;100.0
21121;DHT22;12519;43.318;21.898;2024-02-21T07:08:41;10.5;100.0
21121;DHT22;12519;43.318;21.898;2024-02-21T07:13:17;10.5;100.0
21121;DHT22;12519;43.318;21.898;2024-02-21T07:17:53;10.4;100.0
21121;DHT22;12519;43.318;21.898;2024-02-21T07:22:30;10.4;100.0
21121;DHT22;12519;43.318;21.898;2024-02-21T07:27:06;10.4;100.0
21121;DHT22;12519;43.318;21.898;2024-02-21T07:31:43;10.4;100.0
21121;DHT22;12519;43.318;21.898;2024-02-21T07:36:27;10.4;100.0
21121;DHT22;12519;43.318;21.898;2024-02-21T07:41:05;10.1;100.0
21121;DHT22;12519;43.318;21.898;2024-02-21T07:45:42;10.1;100.0
21121;DHT22;12519;43.318;21.898;2024-02-21T07:50:18;9.8;100.0
21121;DHT22;12519;43.318;21.898;2024-02-21T07:54:54;9.8;100.0
21121;DHT22;12519;43.318;21.898;2024-02-21T07:59:30;9.9;100.0
21121;DHT22;12519;43.318;21.898;2024-02-21T08:04:06;9.9;100.0
21121;DHT22;12519;43.318;21.898;2024-02-21T08:08:42;9.9;100.0
21121;DHT22;12519;43.318;21.898;2024-02-21T08:13:18;9.9;100.0
21121;DHT22;12519;43.318;21.898;2024-02-21T08:17:54;10.7;100.0
21121;DHT22;12519;43.318;21.898;2024-02-21T08:22:31;10.7;100.0
21121;DHT22;12519;43.318;21.898;2024-02-21T08:27:06;10.7;100.0
21121;DHT22;12519;43.318;21.898;2024-02-21T08:31:43;11.5;100.0
21121;DHT22;12519;43.318;21.898;2024-02-21T08:36:19;11.5;100.0
21121;DHT22;12519;43.318;21.898;2024-02-21T08:40:55;11.6;100.0
21121;DHT22;12519;43.318;21.898;2024-02-21T08:45:31;11.6;100.0
21121;DHT22;12519;43.318;21.898;2024-02-21T08:50:08;11.6;100.0
21121;DHT22;12519;43.318;21.898;2024-02-21T08:54:46;11.6;100.0
21121;DHT22;12519;43.318;21.898;2024-02-21T08:59:22;11.0;100.0
21121;DHT22;12519;43.318;21.898;2024-02-21T09:03:58;11.0;100.0
21121;DHT22;12519;43.318;21.898;2024-02-21T09:08:34;10.5;100.0
21121;DHT22;12519;43.318;21.898;2024-02-21T09:13:10;10.5;100.0
21121;DHT22;12519;43.318;21.898;2024-02-21T09:17:46;10.5;100.0
21121;DHT22;12519;43.318;21.898;2024-02-21T09:22:23;10.6;100.0
21121;DHT22;12519;43.318;21.898;2024-02-21T09:27:02;10.6;100.0
21121;DHT22;12519;43.318;21.898;2024-02-21T09:31:39;10.8;100.0
21121;DHT22;12519;43.318;21.898;2024-02-21T09:36:15;10.8;100.0
21121;DHT22;12519;43.318;21.898;2024-02-21T09:40:58;11.6;100.0
21121;DHT22;12519;43.318;21.898;2024-02-21T09:45:54;11.6;100.0
21121;DHT22;12519;43.318;21.898;2024-02-21T09:50:34;12.5;100.0
21121;DHT22;12519;43.318;21.898;2024-02-21T09:55:19;12.5;100.0
21121;DHT22;12519;43.318;21.898;2024-02-21T10:00:00;12.4;100.0
21121;DHT22;12519;43.318;21.898;2024-02-21T10:04:40;12.4;100.0
21121;DHT22;12519;43.318;21.898;2024-02-21T10:09:20;12.4;100.0
21121;DHT22;12519;43.318;21.898;2024-02-21T10:14:03;12.4;100.0
21121;DHT22;12519;43.318;21.898;2024-02-21T10:18:42;13.8;97.0
21121;DHT22;12519;43.318;21.898;2024-02-21T10:23:18;13.8;97.0
21121;DHT22;12519;43.318;21.898;2024-02-21T10:27:55;15.2;94.0
21121;DHT22;12519;43.318;21.898;2024-02-21T10:32:32;15.2;94.0
21121;DHT22;12519;43.318;21.898;2024-02-21T10:37:10;15.2;94.0
21121;DHT22;12519;43.318;21.898;2024-02-21T10:41:47;13.4;96.0
21121;DHT22;12519;43.318;21.898;2024-02-21T10:46:24;13.4;96.0
21121;DHT22;12519;43.318;21.898;2024-02-21T10:51:03;11.6;98.0
21121;DHT22;12519;43.318;21.898;2024-02-21T10:55:58;11.6;98.0
21121;DHT22;12519;43.318;21.898;2024-02-21T11:00:56;11.4;99.0
21121;DHT22;12519;43.318;21.898;2024-02-21T11:05:33;11.4;99.0
21121;DHT22;12519;43.318;21.898;2024-02-21T11:10:20;11.2;100.0
21121;DHT22;12519;43.318;21.898;2024-02-21T11:15:04;11.2;100.0
21121;DHT22;12519;43.318;21.898;2024-02-21T11:19:41;11.1;100.0
21121;DHT22;12519;43.318;21.898;2024-02-21T11:24:26;11.1;100.0
21121;DHT22;12519;43.318;21.898;2024-02-21T11:29:07;11.0;100.0
21121;DHT22;12519;43.318;21.898;2024-02-21T11:33:47;11.0;100.0
21121;DHT22;12519;43.318;21.898;2024-02-21T11:38:23;11.2;100.0
21121;DHT22;12519;43.318;21.898;2024-02-21T11:42:59;11.2;100.0
21121;DHT22;12519;43.318;21.898;2024-02-21T11:47:35;11.2;100.0
21121;DHT22;12519;43.318;21.898;2024-02-21T11:52:12;11.5;100.0
21121;DHT22;12519;43.318;21.898;2024-02-21T11:56:48;11.5;100.0
21121;DHT22;12519;43.318;21.898;2024-02-21T12:01:24;11.8;99.0
21121;DHT22;12519;43.318;21.898;2024-02-21T12:06:01;11.8;99.0
21121;DHT22;12519;43.318;21.898;2024-02-21T12:10:39;12.2;98.0
21121;DHT22;12519;43.318;21.898;2024-02-21T12:15:18;12.2;98.0
21121;DHT22;12519;43.318;21.898;2024-02-21T12:19:55;12.3;98.0
21121;DHT22;12519;43.318;21.898;2024-02-21T12:24:32;12.3;98.0
21121;DHT22;12519;43.318;21.898;2024-02-21T12:29:09;12.4;97.0
21121;DHT22;12519;43.318;21.898;2024-02-21T12:33:45;12.4;97.0
21121;DHT22;12519;43.318;21.898;2024-02-21T12:38:21;12.2;98.0
21121;DHT22;12519;43.318;21.898;2024-02-21T12:42:58;12.2;98.0
21121;DHT22;12519;43.318;21.898;2024-02-21T12:47:36;12.2;98.0
21121;DHT22;12519;43.318;21.898;2024-02-21T12:52:12;11.9;98.0
21121;DHT22;12519;43.318;21.898;2024-02-21T12:56:48;11.9;98.0
21121;DHT22;12519;43.318;21.898;2024-02-21T13:01:25;11.9;98.0
21121;DHT22;12519;43.318;21.898;2024-02-21T13:06:01;11.9;98.0
21121;DHT22;12519;43.318;21.898;2024-02-21T13:10:39;11.9;99.0
21121;DHT22;12519;43.318;21.898;2024-02-21T13:15:16;11.9;99.0
21121;DHT22;12519;43.318;21.898;2024-02-21T13:19:52;11.9;99.0
21121;DHT22;12519;43.318;21.898;2024-02-21T13:24:30;11.9;99.0
21121;DHT22;12519;43.318;21.898;2024-02-21T13:29:06;11.8;99.0
21121;DHT22;12519;43.318;21.898;2024-02-21T13:33:42;11.8;99.0
21121;DHT22;12519;43.318;21.898;2024-02-21T13:38:18;11.8;99.0
21121;DHT22;12519;43.318;21.898;2024-02-21T13:42:54;11.8;99.0
21121;DHT22;12519;43.318;21.898;2024-02-21T13:47:30;11.8;99.0
21121;DHT22;12519;43.318;21.898;2024-02-21T13:52:06;11.7;99.0
21121;DHT22;12519;43.318;21.898;2024-02-21T13:56:42;11.7;99.0
21121;DHT22;12519;43.318;21.898;2024-02-21T14:01:19;11.5;100.0
21121;DHT22;12519;43.318;21.898;2024-02-21T14:05:55;11.5;100.0
21121;DHT22;12519;43.318;21.898;2024-02-21T14:10:31;11.3;100.0
21121;DHT22;12519;43.318;21.898;2024-02-21T14:15:07;11.3;100.0
21121;DHT22;12519;43.318;21.898;2024-02-21T14:19:45;11.3;100.0
21121;DHT22;12519;43.318;21.898;2024-02-21T14:24:21;11.3;100.0
21121;DHT22;12519;43.318;21.898;2024-02-21T14:42:49;11.5;100.0
21121;DHT22;12519;43.318;21.898;2024-02-21T14:47:25;11.5;100.0
21121;DHT22;12519;43.318;21.898;2024-02-21T14:52:01;11.5;100.0
21121;DHT22;12519;43.318;21.898;2024-02-21T14:56:38;11.5;100.0
21121;DHT22;12519;43.318;21.898;2024-02-21T15:01:15;11.4;100.0
21121;DHT22;12519;43.318;21.898;2024-02-21T15:05:51;11.4;100.0
21121;DHT22;12519;43.318;21.898;2024-02-21T15:10:27;11.3;100.0
21121;DHT22;12519;43.318;21.898;2024-02-21T15:15:06;11.3;100.0
21121;DHT22;12519;43.318;21.898;2024-02-21T15:19:44;11.0;100.0
21121;DHT22;12519;43.318;21.898;2024-02-21T15:24:21;11.0;100.0
21121;DHT22;12519;43.318;21.898;2024-02-21T15:28:57;10.6;100.0
21121;DHT22;12519;43.318;21.898;2024-02-21T15:33:34;10.6;100.0
21121;DHT22;12519;43.318;21.898;2024-02-21T15:38:10;10.6;100.0
21121;DHT22;12519;43.318;21.898;2024-02-21T15:42:47;10.5;100.0
21121;DHT22;12519;43.318;21.898;2024-02-21T15:47:23;10.5;100.0
21121;DHT22;12519;43.318;21.898;2024-02-21T15:51:59;10.4;100.0
21121;DHT22;12519;43.318;21.898;2024-02-21T15:56:36;10.4;100.0
21121;DHT22;12519;43.318;21.898;2024-02-21T16:01:12;10.4;100.0
21121;DHT22;12519;43.318;21.898;2024-02-21T16:05:48;10.4;100.0
21121;DHT22;12519;43.318;21.898;2024-02-21T16:10:25;10.5;100.0
21121;DHT22;12519;43.318;21.898;2024-02-21T16:15:00;10.5;100.0
21121;DHT22;12519;43.318;21.898;2024-02-21T16:19:36;10.6;100.0
21121;DHT22;12519;43.318;21.898;2024-02-21T16:24:12;10.6;100.0
21121;DHT22;12519;43.318;21.898;2024-02-21T16:28:47;10.7;100.0
21121;DHT22;12519;43.318;21.898;2024-02-21T16:33:24;10.7;100.0
21121;DHT22;12519;43.318;21.898;2024-02-21T16:38:00;10.7;100.0
21121;DHT22;12519;43.318;21.898;2024-02-21T16:42:37;10.7;100.0
21121;DHT22;12519;43.318;21.898;2024-02-21T16:47:13;10.7;100.0
21121;DHT22;12519;43.318;21.898;2024-02-21T17:01:01;9.8;100.0
21121;DHT22;12519;43.318;21.898;2024-02-21T17:05:37;9.8;100.0
21121;DHT22;12519;43.318;21.898;2024-02-21T17:10:14;9.8;100.0
21121;DHT22;12519;43.318;21.898;2024-02-21T17:14:50;9.8;100.0
21121;DHT22;12519;43.318;21.898;2024-02-21T17:19:26;9.7;100.0
21121;DHT22;12519;43.318;21.898;2024-02-21T17:24:04;9.7;100.0
21121;DHT22;12519;43.318;21.898;2024-02-21T17:28:41;9.7;100.0
21121;DHT22;12519;43.318;21.898;2024-02-21T17:33:17;9.6;100.0
21121;DHT22;12519;43.318;21.898;2024-02-21T17:37:53;9.6;100.0
21121;DHT22;12519;43.318;21.898;2024-02-21T17:42:30;9.9;100.0
21121;DHT22;12519;43.318;21.898;2024-02-21T17:47:06;9.9;100.0
21121;DHT22;12519;43.318;21.898;2024-02-21T17:51:42;10.2;100.0
21121;DHT22;12519;43.318;21.898;2024-02-21T17:56:18;10.2;100.0
21121;DHT22;12519;43.318;21.898;2024-02-21T18:00:55;10.1;100.0
21121;DHT22;12519;43.318;21.898;2024-02-21T18:05:31;10.1;100.0
21121;DHT22;12519;43.318;21.898;2024-02-21T18:10:08;10.1;100.0
21121;DHT22;12519;43.318;21.898;2024-02-21T18:14:45;10.1;100.0
21121;DHT22;12519;43.318;21.898;2024-02-21T18:19:21;10.0;100.0
21121;DHT22;12519;43.318;21.898;2024-02-21T18:23:57;10.0;100.0
21121;DHT22;12519;43.318;21.898;2024-02-21T18:28:33;10.0;100.0
21121;DHT22;12519;43.318;21.898;2024-02-21T18:33:09;9.8;100.0
21121;DHT22;12519;43.318;21.898;2024-02-21T18:37:46;9.8;100.0
21121;DHT22;12519;43.318;21.898;2024-02-21T18:42:22;9.7;100.0
21121;DHT22;12519;43.318;21.898;2024-02-21T18:46:58;9.7;100.0
21121;DHT22;12519;43.318;21.898;2024-02-21T18:51:34;9.6;100.0
21121;DHT22;12519;43.318;21.898;2024-02-21T18:56:10;9.6;100.0
21121;DHT22;12519;43.318;21.898;2024-02-21T19:00:46;9.7;100.0
21121;DHT22;12519;43.318;21.898;2024-02-21T19:05:22;9.7;100.0
21121;DHT22;12519;43.318;21.898;2024-02-21T19:09:58;9.8;100.0
21121;DHT22;12519;43.318;21.898;2024-02-21T19:14:34;9.8;100.0
21121;DHT22;12519;43.318;21.898;2024-02-21T19:19:10;9.7;100.0
21121;DHT22;12519;43.318;21.898;2024-02-21T19:23:46;9.7;100.0
21121;DHT22;12519;43.318;21.898;2024-02-21T19:28:22;9.7;100.0
21121;DHT22;12519;43.318;21.898;2024-02-21T19:32:58;9.6;100.0
21121;DHT22;12519;43.318;21.898;2024-02-21T19:37:34;9.6;100.0
21121;DHT22;12519;43.318;21.898;2024-02-21T19:42:10;9.4;100.0
21121;DHT22;12519;43.318;21.898;2024-02-21T19:46:47;9.4;100.0
21121;DHT22;12519;43.318;21.898;2024-02-21T19:51:23;9.2;100.0
21121;DHT22;12519;43.318;21.898;2024-02-21T19:56:00;9.2;100.0
21121;DHT22;12519;43.318;21.898;2024-02-21T20:00:36;9.2;100.0
21121;DHT22;12519;43.318;21.898;2024-02-21T20:05:13;9.2;100.0
21121;DHT22;12519;43.318;21.898;2024-02-21T20:09:50;9.2;100.0
21121;DHT22;12519;43.318;21.898;2024-02-21T20:14:26;9.2;100.0
21121;DHT22;12519;43.318;21.898;2024-02-21T20:19:02;9.2;100.0
21121;DHT22;12519;43.318;21.898;2024-02-21T20:23:39;9.1;100.0
21121;DHT22;12519;43.318;21.898;2024-02-21T20:28:15;9.1;100.0
21121;DHT22;12519;43.318;21.898;2024-02-21T20:32:51;9.0;100.0
21121;DHT22;12519;43.318;21.898;2024-02-21T20:37:27;9.0;100.0
21121;DHT22;12519;43.318;21.898;2024-02-21T20:42:05;8.7;100.0
21121;DHT22;12519;43.318;21.898;2024-02-21T20:46:41;8.7;100.0
21121;DHT22;12519;43.318;21.898;2024-02-21T20:51:17;8.4;100.0
21121;DHT22;12519;43.318;21.898;2024-02-21T20:55:53;8.4;100.0
21121;DHT22;12519;43.318;21.898;2024-02-21T21:00:30;8.4;100.0
21121;DHT22;12519;43.318;21.898;2024-02-21T21:05:07;8.4;100.0
21121;DHT22;12519;43.318;21.898;2024-02-21T21:09:43;8.4;100.0
21121;DHT22;12519;43.318;21.898;2024-02-21T21:14:19;8.4;100.0
21121;DHT22;12519;43.318;21.898;2024-02-21T21:18:55;8.4;100.0
21121;DHT22;12519;43.318;21.898;2024-02-21T21:23:31;8.3;100.0
21121;DHT22;12519;43.318;21.898;2024-02-21T21:28:07;8.3;100.0
21121;DHT22;12519;43.318;21.898;2024-02-21T21:32:43;8.2;100.0
21121;DHT22;12519;43.318;21.898;2024-02-21T21:37:19;8.2;100.0
21121;DHT22;12519;43.318;21.898;2024-02-21T21:41:55;8.0;100.0
21121;DHT22;12519;43.318;21.898;2024-02-21T21:46:31;8.0;100.0
21121;DHT22;12519;43.318;21.898;2024-02-21T21:51:07;7.9;100.0
21121;DHT22;12519;43.318;21.898;2024-02-21T21:55:43;7.9;100.0
21121;DHT22;12519;43.318;21.898;2024-02-21T22:00:20;7.9;100.0
21121;DHT22;12519;43.318;21.898;2024-02-21T22:04:56;7.9;100.0
21121;DHT22;12519;43.318;21.898;2024-02-21T22:09:33;7.9;100.0
21121;DHT22;12519;43.318;21.898;2024-02-21T22:14:09;7.9;100.0
21121;DHT22;12519;43.318;21.898;2024-02-21T22:18:45;7.9;100.0
21121;DHT22;12519;43.318;21.898;2024-02-21T22:23:21;7.8;100.0
21121;DHT22;12519;43.318;21.898;2024-02-21T22:27:58;7.8;100.0
21121;DHT22;12519;43.318;21.898;2024-02-21T22:32:34;7.8;100.0
21121;DHT22;12519;43.318;21.898;2024-02-21T22:37:10;7.8;100.0
21121;DHT22;12519;43.318;21.898;2024-02-21T22:41:46;7.7;100.0
21121;DHT22;12519;43.318;21.898;2024-02-21T22:46:23;7.7;100.0
21121;DHT22;12519;43.318;21.898;2024-02-21T22:51:00;7.6;100.0
21121;DHT22;12519;43.318;21.898;2024-02-21T22:55:36;7.6;100.0
21121;DHT22;12519;43.318;21.898;2024-02-21T23:00:14;7.8;100.0
21121;DHT22;12519;43.318;21.898;2024-02-21T23:04:51;7.8;100.0
21121;DHT22;12519;43.318;21.898;2024-02-21T23:09:28;7.8;100.0
21121;DHT22;12519;43.318;21.898;2024-02-21T23:14:04;8.1;100.0
21121;DHT22;12519;43.318;21.898;2024-02-21T23:18:40;8.1;100.0
21121;DHT22;12519;43.318;21.898;2024-02-21T23:23:17;7.9;100.0
21121;DHT22;12519;43.318;21.898;2024-02-21T23:27:53;7.9;100.0
21121;DHT22;12519;43.318;21.898;2024-02-21T23:32:30;7.7;100.0
21121;DHT22;12519;43.318;21.898;2024-02-21T23:37:06;7.7;100.0
21121;DHT22;12519;43.318;21.898;2024-02-21T23:41:42;7.2;100.0
21121;DHT22;12519;43.318;21.898;2024-02-21T23:46:19;7.2;100.0
21121;DHT22;12519;43.318;21.898;2024-02-21T23:50:55;6.7;100.0
21121;DHT22;12519;43.318;21.898;2024-02-21T23:55:31;6.7;100.0
